sensor_id;sensor_type;location;lat;lon;timestamp;P1;durP1;ratioP1;P2;durP2;ratioP2
14066;SDS011;7108;42.684;23.350;2022-09-09T00:01:22;221.33;;;119.70;;
14066;SDS011;7108;42.684;23.350;2022-09-09T00:23:57;225.83;;;123.37;;
14066;SDS011;7108;42.684;23.350;2022-09-09T00:31:37;217.13;;;114.87;;
14066;SDS011;7108;42.684;23.350;2022-09-09T00:36:40;236.67;;;122.97;;
14066;SDS011;7108;42.684;23.350;2022-09-09T00:39:10;233.47;;;125.27;;
14066;SDS011;7108;42.684;23.350;2022-09-09T00:41:55;231.73;;;122.00;;
14066;SDS011;7108;42.684;23.350;2022-09-09T00:44:48;220.40;;;112.20;;
14066;SDS011;7108;42.684;23.350;2022-09-09T00:47:29;205.77;;;110.80;;
14066;SDS011;7108;42.684;23.350;2022-09-09T00:50:23;237.20;;;116.93;;
14066;SDS011;7108;42.684;23.350;2022-09-09T00:58:30;217.33;;;114.00;;
14066;SDS011;7108;42.684;23.350;2022-09-09T01:01:06;213.23;;;113.27;;
14066;SDS011;7108;42.684;23.350;2022-09-09T01:03:37;236.07;;;117.00;;
14066;SDS011;7108;42.684;23.350;2022-09-09T01:06:15;227.30;;;115.37;;
14066;SDS011;7108;42.684;23.350;2022-09-09T01:12:07;219.00;;;116.83;;
14066;SDS011;7108;42.684;23.350;2022-09-09T01:14:45;222.67;;;119.30;;
14066;SDS011;7108;42.684;23.350;2022-09-09T01:27:19;219.00;;;116.33;;
14066;SDS011;7108;42.684;23.350;2022-09-09T01:29:48;239.67;;;122.70;;
14066;SDS011;7108;42.684;23.350;2022-09-09T01:35:03;228.90;;;116.77;;
14066;SDS011;7108;42.684;23.350;2022-09-09T01:37:30;217.30;;;117.80;;
14066;SDS011;7108;42.684;23.350;2022-09-09T01:39:56;226.30;;;123.80;;
14066;SDS011;7108;42.684;23.350;2022-09-09T01:42:21;219.07;;;120.43;;
14066;SDS011;7108;42.684;23.350;2022-09-09T01:44:46;224.63;;;122.80;;
14066;SDS011;7108;42.684;23.350;2022-09-09T01:47:12;242.40;;;123.83;;
14066;SDS011;7108;42.684;23.350;2022-09-09T01:49:37;225.30;;;119.37;;
14066;SDS011;7108;42.684;23.350;2022-09-09T01:52:03;218.53;;;121.80;;
14066;SDS011;7108;42.684;23.350;2022-09-09T01:54:29;212.20;;;121.03;;
14066;SDS011;7108;42.684;23.350;2022-09-09T02:05:38;215.53;;;119.93;;
14066;SDS011;7108;42.684;23.350;2022-09-09T02:09:05;220.93;;;118.13;;
14066;SDS011;7108;42.684;23.350;2022-09-09T02:11:16;237.83;;;123.77;;
14066;SDS011;7108;42.684;23.350;2022-09-09T02:13:48;233.67;;;122.27;;
14066;SDS011;7108;42.684;23.350;2022-09-09T02:16:25;230.67;;;120.17;;
14066;SDS011;7108;42.684;23.350;2022-09-09T02:19:49;234.70;;;123.30;;
14066;SDS011;7108;42.684;23.350;2022-09-09T02:21:55;221.00;;;112.77;;
14066;SDS011;7108;42.684;23.350;2022-09-09T02:24:24;207.73;;;110.73;;
14066;SDS011;7108;42.684;23.350;2022-09-09T02:26:51;224.83;;;113.53;;
14066;SDS011;7108;42.684;23.350;2022-09-09T02:29:25;234.73;;;113.57;;
14066;SDS011;7108;42.684;23.350;2022-09-09T02:31:56;215.03;;;111.17;;
14066;SDS011;7108;42.684;23.350;2022-09-09T02:34:28;225.60;;;112.53;;
14066;SDS011;7108;42.684;23.350;2022-09-09T02:36:55;224.67;;;114.90;;
14066;SDS011;7108;42.684;23.350;2022-09-09T02:39:25;218.47;;;113.50;;
14066;SDS011;7108;42.684;23.350;2022-09-09T02:41:50;220.73;;;112.27;;
14066;SDS011;7108;42.684;23.350;2022-09-09T02:44:17;212.80;;;111.07;;
14066;SDS011;7108;42.684;23.350;2022-09-09T02:46:47;234.10;;;116.00;;
14066;SDS011;7108;42.684;23.350;2022-09-09T02:52:20;219.63;;;113.13;;
14066;SDS011;7108;42.684;23.350;2022-09-09T02:54:58;220.90;;;113.53;;
14066;SDS011;7108;42.684;23.350;2022-09-09T02:57:30;214.20;;;110.93;;
14066;SDS011;7108;42.684;23.350;2022-09-09T02:59:58;222.93;;;110.53;;
14066;SDS011;7108;42.684;23.350;2022-09-09T03:02:24;234.30;;;116.97;;
14066;SDS011;7108;42.684;23.350;2022-09-09T03:04:50;234.50;;;113.53;;
14066;SDS011;7108;42.684;23.350;2022-09-09T03:07:17;236.57;;;121.50;;
14066;SDS011;7108;42.684;23.350;2022-09-09T03:09:46;242.47;;;124.13;;
14066;SDS011;7108;42.684;23.350;2022-09-09T03:12:11;225.30;;;114.20;;
14066;SDS011;7108;42.684;23.350;2022-09-09T03:14:37;211.70;;;109.63;;
14066;SDS011;7108;42.684;23.350;2022-09-09T03:17:03;223.03;;;113.77;;
14066;SDS011;7108;42.684;23.350;2022-09-09T03:19:32;218.17;;;115.03;;
14066;SDS011;7108;42.684;23.350;2022-09-09T03:22:01;219.40;;;116.80;;
14066;SDS011;7108;42.684;23.350;2022-09-09T03:24:26;216.27;;;112.73;;
14066;SDS011;7108;42.684;23.350;2022-09-09T03:26:51;232.67;;;115.30;;
14066;SDS011;7108;42.684;23.350;2022-09-09T03:29:17;219.13;;;113.93;;
14066;SDS011;7108;42.684;23.350;2022-09-09T03:31:43;230.33;;;119.10;;
14066;SDS011;7108;42.684;23.350;2022-09-09T03:34:09;297.70;;;164.97;;
14066;SDS011;7108;42.684;23.350;2022-09-09T03:36:35;211.60;;;111.43;;
14066;SDS011;7108;42.684;23.350;2022-09-09T03:39:01;218.10;;;115.77;;
14066;SDS011;7108;42.684;23.350;2022-09-09T03:41:28;227.70;;;118.97;;
14066;SDS011;7108;42.684;23.350;2022-09-09T03:43:54;242.00;;;117.33;;
14066;SDS011;7108;42.684;23.350;2022-09-09T03:46:19;246.33;;;121.93;;
14066;SDS011;7108;42.684;23.350;2022-09-09T03:48:46;235.50;;;120.53;;
14066;SDS011;7108;42.684;23.350;2022-09-09T03:51:12;232.20;;;120.87;;
14066;SDS011;7108;42.684;23.350;2022-09-09T03:53:38;219.07;;;116.43;;
14066;SDS011;7108;42.684;23.350;2022-09-09T03:56:05;214.87;;;111.40;;
14066;SDS011;7108;42.684;23.350;2022-09-09T03:58:32;210.70;;;112.00;;
14066;SDS011;7108;42.684;23.350;2022-09-09T04:01:00;229.93;;;116.93;;
14066;SDS011;7108;42.684;23.350;2022-09-09T04:03:27;242.33;;;121.73;;
14066;SDS011;7108;42.684;23.350;2022-09-09T04:05:54;223.13;;;120.63;;
14066;SDS011;7108;42.684;23.350;2022-09-09T04:08:21;230.77;;;118.33;;
14066;SDS011;7108;42.684;23.350;2022-09-09T04:10:47;231.17;;;113.63;;
14066;SDS011;7108;42.684;23.350;2022-09-09T04:13:14;239.93;;;112.37;;
14066;SDS011;7108;42.684;23.350;2022-09-09T04:15:42;228.20;;;118.83;;
14066;SDS011;7108;42.684;23.350;2022-09-09T04:18:08;214.97;;;117.20;;
14066;SDS011;7108;42.684;23.350;2022-09-09T04:20:34;214.60;;;115.53;;
14066;SDS011;7108;42.684;23.350;2022-09-09T04:23:00;236.53;;;119.30;;
14066;SDS011;7108;42.684;23.350;2022-09-09T04:25:26;230.83;;;121.37;;
14066;SDS011;7108;42.684;23.350;2022-09-09T04:27:55;225.83;;;121.23;;
14066;SDS011;7108;42.684;23.350;2022-09-09T04:30:21;227.67;;;117.30;;
14066;SDS011;7108;42.684;23.350;2022-09-09T04:32:47;224.90;;;117.17;;
14066;SDS011;7108;42.684;23.350;2022-09-09T04:35:12;224.37;;;112.97;;
14066;SDS011;7108;42.684;23.350;2022-09-09T04:37:38;216.90;;;112.37;;
14066;SDS011;7108;42.684;23.350;2022-09-09T04:40:03;215.67;;;110.90;;
14066;SDS011;7108;42.684;23.350;2022-09-09T04:42:29;219.33;;;117.30;;
14066;SDS011;7108;42.684;23.350;2022-09-09T04:44:55;236.10;;;120.10;;
14066;SDS011;7108;42.684;23.350;2022-09-09T04:47:20;221.40;;;110.23;;
14066;SDS011;7108;42.684;23.350;2022-09-09T04:49:46;222.70;;;113.40;;
14066;SDS011;7108;42.684;23.350;2022-09-09T04:52:12;208.60;;;111.03;;
14066;SDS011;7108;42.684;23.350;2022-09-09T04:54:38;216.40;;;110.43;;
14066;SDS011;7108;42.684;23.350;2022-09-09T04:57:04;219.07;;;113.17;;
14066;SDS011;7108;42.684;23.350;2022-09-09T04:59:30;225.97;;;117.57;;
14066;SDS011;7108;42.684;23.350;2022-09-09T05:01:55;228.30;;;121.50;;
14066;SDS011;7108;42.684;23.350;2022-09-09T05:04:21;220.20;;;112.80;;
14066;SDS011;7108;42.684;23.350;2022-09-09T05:06:46;218.20;;;113.90;;
14066;SDS011;7108;42.684;23.350;2022-09-09T05:09:12;220.50;;;115.63;;
14066;SDS011;7108;42.684;23.350;2022-09-09T05:11:37;217.17;;;115.80;;
14066;SDS011;7108;42.684;23.350;2022-09-09T05:14:03;225.97;;;116.47;;
14066;SDS011;7108;42.684;23.350;2022-09-09T05:16:29;235.50;;;118.77;;
14066;SDS011;7108;42.684;23.350;2022-09-09T05:18:55;226.27;;;117.93;;
14066;SDS011;7108;42.684;23.350;2022-09-09T05:21:22;224.00;;;119.47;;
14066;SDS011;7108;42.684;23.350;2022-09-09T05:23:50;219.73;;;118.00;;
14066;SDS011;7108;42.684;23.350;2022-09-09T05:26:17;215.37;;;117.03;;
14066;SDS011;7108;42.684;23.350;2022-09-09T05:28:45;211.70;;;119.80;;
14066;SDS011;7108;42.684;23.350;2022-09-09T05:31:11;222.63;;;121.20;;
14066;SDS011;7108;42.684;23.350;2022-09-09T05:33:39;208.47;;;118.20;;
14066;SDS011;7108;42.684;23.350;2022-09-09T05:36:07;240.43;;;129.33;;
14066;SDS011;7108;42.684;23.350;2022-09-09T05:38:33;230.57;;;125.20;;
14066;SDS011;7108;42.684;23.350;2022-09-09T05:41:01;231.03;;;128.70;;
14066;SDS011;7108;42.684;23.350;2022-09-09T05:43:27;221.40;;;128.60;;
14066;SDS011;7108;42.684;23.350;2022-09-09T05:46:00;243.33;;;132.80;;
14066;SDS011;7108;42.684;23.350;2022-09-09T05:48:36;224.23;;;114.07;;
14066;SDS011;7108;42.684;23.350;2022-09-09T05:51:04;223.50;;;109.97;;
14066;SDS011;7108;42.684;23.350;2022-09-09T05:53:34;225.23;;;107.10;;
14066;SDS011;7108;42.684;23.350;2022-09-09T05:56:04;229.73;;;107.70;;
14066;SDS011;7108;42.684;23.350;2022-09-09T05:58:34;220.73;;;106.53;;
14066;SDS011;7108;42.684;23.350;2022-09-09T06:01:00;227.47;;;107.93;;
14066;SDS011;7108;42.684;23.350;2022-09-09T06:03:27;231.73;;;108.27;;
14066;SDS011;7108;42.684;23.350;2022-09-09T06:05:57;230.33;;;113.57;;
14066;SDS011;7108;42.684;23.350;2022-09-09T06:08:25;229.77;;;110.97;;
14066;SDS011;7108;42.684;23.350;2022-09-09T06:10:51;212.70;;;109.67;;
14066;SDS011;7108;42.684;23.350;2022-09-09T06:13:17;226.93;;;119.63;;
14066;SDS011;7108;42.684;23.350;2022-09-09T06:15:49;211.70;;;115.70;;
14066;SDS011;7108;42.684;23.350;2022-09-09T06:18:16;224.33;;;118.93;;
14066;SDS011;7108;42.684;23.350;2022-09-09T06:20:52;215.67;;;117.30;;
14066;SDS011;7108;42.684;23.350;2022-09-09T06:23:19;235.87;;;116.20;;
14066;SDS011;7108;42.684;23.350;2022-09-09T06:25:45;215.73;;;109.50;;
14066;SDS011;7108;42.684;23.350;2022-09-09T06:28:11;230.80;;;111.70;;
14066;SDS011;7108;42.684;23.350;2022-09-09T06:30:36;209.53;;;109.40;;
14066;SDS011;7108;42.684;23.350;2022-09-09T06:33:02;283.27;;;126.37;;
14066;SDS011;7108;42.684;23.350;2022-09-09T06:35:28;234.30;;;121.80;;
14066;SDS011;7108;42.684;23.350;2022-09-09T06:37:54;223.43;;;121.67;;
14066;SDS011;7108;42.684;23.350;2022-09-09T06:40:19;208.20;;;114.93;;
14066;SDS011;7108;42.684;23.350;2022-09-09T06:42:45;215.03;;;121.00;;
14066;SDS011;7108;42.684;23.350;2022-09-09T06:45:10;233.83;;;125.23;;
14066;SDS011;7108;42.684;23.350;2022-09-09T06:47:36;222.77;;;120.47;;
14066;SDS011;7108;42.684;23.350;2022-09-09T06:50:01;225.27;;;121.73;;
14066;SDS011;7108;42.684;23.350;2022-09-09T06:52:26;223.73;;;127.07;;
14066;SDS011;7108;42.684;23.350;2022-09-09T06:54:53;223.70;;;122.97;;
14066;SDS011;7108;42.684;23.350;2022-09-09T06:57:18;223.73;;;124.57;;
14066;SDS011;7108;42.684;23.350;2022-09-09T06:59:44;209.33;;;121.70;;
14066;SDS011;7108;42.684;23.350;2022-09-09T07:02:09;229.80;;;133.93;;
14066;SDS011;7108;42.684;23.350;2022-09-09T07:04:35;227.40;;;123.67;;
14066;SDS011;7108;42.684;23.350;2022-09-09T07:07:02;230.03;;;125.67;;
14066;SDS011;7108;42.684;23.350;2022-09-09T07:09:27;225.00;;;124.83;;
14066;SDS011;7108;42.684;23.350;2022-09-09T07:11:54;212.40;;;122.03;;
14066;SDS011;7108;42.684;23.350;2022-09-09T07:14:20;222.27;;;125.30;;
14066;SDS011;7108;42.684;23.350;2022-09-09T07:16:46;212.67;;;118.37;;
14066;SDS011;7108;42.684;23.350;2022-09-09T07:19:12;228.73;;;125.63;;
14066;SDS011;7108;42.684;23.350;2022-09-09T07:21:39;230.77;;;125.97;;
14066;SDS011;7108;42.684;23.350;2022-09-09T07:24:07;208.60;;;120.70;;
14066;SDS011;7108;42.684;23.350;2022-09-09T07:26:35;222.30;;;122.30;;
14066;SDS011;7108;42.684;23.350;2022-09-09T07:29:01;233.00;;;127.77;;
14066;SDS011;7108;42.684;23.350;2022-09-09T07:31:28;216.40;;;122.77;;
14066;SDS011;7108;42.684;23.350;2022-09-09T07:33:59;235.63;;;128.70;;
14066;SDS011;7108;42.684;23.350;2022-09-09T07:36:32;216.33;;;120.57;;
14066;SDS011;7108;42.684;23.350;2022-09-09T07:39:01;233.53;;;123.30;;
14066;SDS011;7108;42.684;23.350;2022-09-09T07:41:30;218.87;;;118.27;;
14066;SDS011;7108;42.684;23.350;2022-09-09T07:43:59;220.07;;;114.37;;
14066;SDS011;7108;42.684;23.350;2022-09-09T07:46:29;205.80;;;113.87;;
14066;SDS011;7108;42.684;23.350;2022-09-09T07:48:56;212.10;;;118.63;;
14066;SDS011;7108;42.684;23.350;2022-09-09T07:51:25;222.50;;;120.73;;
14066;SDS011;7108;42.684;23.350;2022-09-09T07:53:54;218.40;;;125.70;;
14066;SDS011;7108;42.684;23.350;2022-09-09T07:56:25;214.03;;;125.43;;
14066;SDS011;7108;42.684;23.350;2022-09-09T07:58:52;213.30;;;118.03;;
14066;SDS011;7108;42.684;23.350;2022-09-09T08:01:21;221.97;;;125.00;;
14066;SDS011;7108;42.684;23.350;2022-09-09T08:03:51;216.37;;;121.37;;
14066;SDS011;7108;42.684;23.350;2022-09-09T08:06:41;216.23;;;120.20;;
14066;SDS011;7108;42.684;23.350;2022-09-09T08:09:09;230.97;;;120.40;;
14066;SDS011;7108;42.684;23.350;2022-09-09T08:11:35;246.53;;;127.67;;
14066;SDS011;7108;42.684;23.350;2022-09-09T08:14:01;235.53;;;119.43;;
14066;SDS011;7108;42.684;23.350;2022-09-09T08:16:31;213.00;;;119.83;;
14066;SDS011;7108;42.684;23.350;2022-09-09T08:18:59;214.90;;;119.07;;
14066;SDS011;7108;42.684;23.350;2022-09-09T08:21:25;212.53;;;121.60;;
14066;SDS011;7108;42.684;23.350;2022-09-09T08:23:58;213.33;;;120.43;;
14066;SDS011;7108;42.684;23.350;2022-09-09T08:26:25;214.03;;;120.33;;
14066;SDS011;7108;42.684;23.350;2022-09-09T08:28:56;211.27;;;120.70;;
14066;SDS011;7108;42.684;23.350;2022-09-09T08:31:24;217.33;;;119.53;;
14066;SDS011;7108;42.684;23.350;2022-09-09T08:33:53;220.70;;;123.50;;
14066;SDS011;7108;42.684;23.350;2022-09-09T08:36:20;237.30;;;124.53;;
14066;SDS011;7108;42.684;23.350;2022-09-09T08:38:47;215.50;;;121.53;;
14066;SDS011;7108;42.684;23.350;2022-09-09T08:43:46;220.43;;;123.33;;
14066;SDS011;7108;42.684;23.350;2022-09-09T08:51:25;216.90;;;121.73;;
14066;SDS011;7108;42.684;23.350;2022-09-09T08:53:53;220.20;;;120.70;;
14066;SDS011;7108;42.684;23.350;2022-09-09T08:56:23;210.57;;;115.17;;
14066;SDS011;7108;42.684;23.350;2022-09-09T08:58:51;238.37;;;126.13;;
14066;SDS011;7108;42.684;23.350;2022-09-09T09:01:22;229.63;;;124.27;;
14066;SDS011;7108;42.684;23.350;2022-09-09T09:06:54;228.63;;;122.97;;
14066;SDS011;7108;42.684;23.350;2022-09-09T09:12:19;224.83;;;121.83;;
14066;SDS011;7108;42.684;23.350;2022-09-09T09:14:47;221.53;;;117.87;;
14066;SDS011;7108;42.684;23.350;2022-09-09T09:19:40;226.90;;;119.73;;
14066;SDS011;7108;42.684;23.350;2022-09-09T09:22:21;238.63;;;124.97;;
14066;SDS011;7108;42.684;23.350;2022-09-09T09:30:23;258.73;;;126.47;;
14066;SDS011;7108;42.684;23.350;2022-09-09T09:35:44;237.37;;;122.83;;
14066;SDS011;7108;42.684;23.350;2022-09-09T09:38:13;233.17;;;124.00;;
14066;SDS011;7108;42.684;23.350;2022-09-09T09:40:49;233.83;;;122.07;;
14066;SDS011;7108;42.684;23.350;2022-09-09T09:43:21;228.37;;;117.33;;
14066;SDS011;7108;42.684;23.350;2022-09-09T09:45:50;222.63;;;117.73;;
14066;SDS011;7108;42.684;23.350;2022-09-09T09:48:15;236.57;;;123.97;;
14066;SDS011;7108;42.684;23.350;2022-09-09T09:50:48;231.60;;;120.27;;
14066;SDS011;7108;42.684;23.350;2022-09-09T09:53:29;230.73;;;118.87;;
14066;SDS011;7108;42.684;23.350;2022-09-09T09:55:59;213.07;;;116.27;;
14066;SDS011;7108;42.684;23.350;2022-09-09T09:58:29;214.87;;;118.10;;
14066;SDS011;7108;42.684;23.350;2022-09-09T10:01:00;229.17;;;123.43;;
14066;SDS011;7108;42.684;23.350;2022-09-09T10:03:30;209.43;;;117.57;;
14066;SDS011;7108;42.684;23.350;2022-09-09T10:05:58;216.40;;;119.73;;
14066;SDS011;7108;42.684;23.350;2022-09-09T10:08:27;230.77;;;120.63;;
14066;SDS011;7108;42.684;23.350;2022-09-09T10:18:59;230.33;;;126.23;;
14066;SDS011;7108;42.684;23.350;2022-09-09T10:21:55;226.30;;;125.53;;
14066;SDS011;7108;42.684;23.350;2022-09-09T10:29:59;232.93;;;131.27;;
14066;SDS011;7108;42.684;23.350;2022-09-09T10:32:40;215.03;;;126.20;;
14066;SDS011;7108;42.684;23.350;2022-09-09T10:46:26;220.67;;;125.07;;
14066;SDS011;7108;42.684;23.350;2022-09-09T10:49:18;224.70;;;121.80;;
14066;SDS011;7108;42.684;23.350;2022-09-09T10:59:54;242.77;;;128.43;;
14066;SDS011;7108;42.684;23.350;2022-09-09T11:02:29;231.53;;;123.33;;
14066;SDS011;7108;42.684;23.350;2022-09-09T11:05:16;231.57;;;121.20;;
14066;SDS011;7108;42.684;23.350;2022-09-09T11:10:48;223.47;;;121.97;;
14066;SDS011;7108;42.684;23.350;2022-09-09T11:13:24;219.17;;;122.37;;
14066;SDS011;7108;42.684;23.350;2022-09-09T11:18:51;230.67;;;125.90;;
14066;SDS011;7108;42.684;23.350;2022-09-09T11:21:38;234.60;;;127.03;;
14066;SDS011;7108;42.684;23.350;2022-09-09T11:24:17;214.53;;;123.50;;
14066;SDS011;7108;42.684;23.350;2022-09-09T11:26:53;228.43;;;123.43;;
14066;SDS011;7108;42.684;23.350;2022-09-09T11:40:46;230.47;;;120.53;;
14066;SDS011;7108;42.684;23.350;2022-09-09T11:43:13;225.00;;;122.53;;
14066;SDS011;7108;42.684;23.350;2022-09-09T11:45:43;219.27;;;122.63;;
14066;SDS011;7108;42.684;23.350;2022-09-09T11:48:34;226.70;;;124.23;;
14066;SDS011;7108;42.684;23.350;2022-09-09T11:59:05;235.87;;;127.63;;
14066;SDS011;7108;42.684;23.350;2022-09-09T12:01:44;226.70;;;123.20;;
14066;SDS011;7108;42.684;23.350;2022-09-09T12:04:21;222.57;;;122.40;;
14066;SDS011;7108;42.684;23.350;2022-09-09T12:12:04;226.70;;;128.23;;
14066;SDS011;7108;42.684;23.350;2022-09-09T12:17:41;227.57;;;126.63;;
14066;SDS011;7108;42.684;23.350;2022-09-09T12:31:02;233.77;;;124.50;;
14066;SDS011;7108;42.684;23.350;2022-09-09T12:33:37;232.10;;;122.40;;
14066;SDS011;7108;42.684;23.350;2022-09-09T12:36:10;218.10;;;120.00;;
14066;SDS011;7108;42.684;23.350;2022-09-09T12:38:41;212.23;;;124.03;;
14066;SDS011;7108;42.684;23.350;2022-09-09T12:41:21;242.73;;;129.27;;
14066;SDS011;7108;42.684;23.350;2022-09-09T12:43:51;232.67;;;128.60;;
14066;SDS011;7108;42.684;23.350;2022-09-09T12:46:40;239.10;;;129.57;;
14066;SDS011;7108;42.684;23.350;2022-09-09T12:49:42;220.37;;;126.83;;
14066;SDS011;7108;42.684;23.350;2022-09-09T12:52:07;234.20;;;128.97;;
14066;SDS011;7108;42.684;23.350;2022-09-09T12:54:36;238.47;;;130.07;;
14066;SDS011;7108;42.684;23.350;2022-09-09T12:57:03;244.10;;;132.47;;
14066;SDS011;7108;42.684;23.350;2022-09-09T12:59:37;233.20;;;124.73;;
14066;SDS011;7108;42.684;23.350;2022-09-09T13:04:50;231.00;;;130.07;;
14066;SDS011;7108;42.684;23.350;2022-09-09T13:07:19;222.97;;;123.43;;
14066;SDS011;7108;42.684;23.350;2022-09-09T13:09:47;219.73;;;130.13;;
14066;SDS011;7108;42.684;23.350;2022-09-09T13:12:23;259.73;;;136.40;;
14066;SDS011;7108;42.684;23.350;2022-09-09T13:14:49;243.87;;;131.80;;
14066;SDS011;7108;42.684;23.350;2022-09-09T13:17:19;272.50;;;135.50;;
14066;SDS011;7108;42.684;23.350;2022-09-09T13:19:46;260.23;;;133.53;;
14066;SDS011;7108;42.684;23.350;2022-09-09T13:25:02;271.63;;;137.83;;
14066;SDS011;7108;42.684;23.350;2022-09-09T13:27:51;273.37;;;135.80;;
14066;SDS011;7108;42.684;23.350;2022-09-09T13:30:40;261.03;;;131.20;;
14066;SDS011;7108;42.684;23.350;2022-09-09T13:35:34;274.43;;;137.50;;
14066;SDS011;7108;42.684;23.350;2022-09-09T13:38:12;267.80;;;136.40;;
14066;SDS011;7108;42.684;23.350;2022-09-09T13:40:39;262.07;;;133.83;;
14066;SDS011;7108;42.684;23.350;2022-09-09T13:43:05;272.33;;;135.67;;
14066;SDS011;7108;42.684;23.350;2022-09-09T13:45:51;259.43;;;136.87;;
14066;SDS011;7108;42.684;23.350;2022-09-09T13:48:19;278.27;;;139.70;;
14066;SDS011;7108;42.684;23.350;2022-09-09T13:50:53;260.97;;;138.73;;
14066;SDS011;7108;42.684;23.350;2022-09-09T13:53:20;282.13;;;146.27;;
14066;SDS011;7108;42.684;23.350;2022-09-09T13:55:46;263.37;;;133.60;;
14066;SDS011;7108;42.684;23.350;2022-09-09T13:58:15;281.23;;;136.23;;
14066;SDS011;7108;42.684;23.350;2022-09-09T14:00:44;273.93;;;136.70;;
14066;SDS011;7108;42.684;23.350;2022-09-09T14:03:10;275.63;;;138.40;;
14066;SDS011;7108;42.684;23.350;2022-09-09T14:05:35;271.97;;;134.40;;
14066;SDS011;7108;42.684;23.350;2022-09-09T14:08:03;266.90;;;135.83;;
14066;SDS011;7108;42.684;23.350;2022-09-09T14:10:31;252.77;;;132.23;;
14066;SDS011;7108;42.684;23.350;2022-09-09T14:12:57;239.33;;;134.03;;
14066;SDS011;7108;42.684;23.350;2022-09-09T14:15:22;277.03;;;135.17;;
14066;SDS011;7108;42.684;23.350;2022-09-09T14:17:48;262.60;;;131.87;;
14066;SDS011;7108;42.684;23.350;2022-09-09T14:20:14;279.47;;;132.83;;
14066;SDS011;7108;42.684;23.350;2022-09-09T14:22:40;273.57;;;144.00;;
14066;SDS011;7108;42.684;23.350;2022-09-09T14:25:06;274.53;;;132.93;;
14066;SDS011;7108;42.684;23.350;2022-09-09T14:27:32;263.70;;;130.43;;
14066;SDS011;7108;42.684;23.350;2022-09-09T14:29:58;261.87;;;128.20;;
14066;SDS011;7108;42.684;23.350;2022-09-09T14:32:25;256.70;;;131.27;;
14066;SDS011;7108;42.684;23.350;2022-09-09T14:34:51;258.53;;;131.67;;
14066;SDS011;7108;42.684;23.350;2022-09-09T14:37:17;276.03;;;133.43;;
14066;SDS011;7108;42.684;23.350;2022-09-09T14:39:43;269.53;;;132.70;;
14066;SDS011;7108;42.684;23.350;2022-09-09T14:42:10;272.63;;;135.03;;
14066;SDS011;7108;42.684;23.350;2022-09-09T14:44:36;269.80;;;135.20;;
14066;SDS011;7108;42.684;23.350;2022-09-09T14:47:03;263.67;;;134.90;;
14066;SDS011;7108;42.684;23.350;2022-09-09T14:49:30;263.27;;;132.10;;
14066;SDS011;7108;42.684;23.350;2022-09-09T14:51:56;253.47;;;130.90;;
14066;SDS011;7108;42.684;23.350;2022-09-09T14:54:21;260.07;;;129.40;;
14066;SDS011;7108;42.684;23.350;2022-09-09T14:56:48;247.50;;;128.77;;
14066;SDS011;7108;42.684;23.350;2022-09-09T14:59:14;263.83;;;134.47;;
14066;SDS011;7108;42.684;23.350;2022-09-09T15:01:39;289.63;;;137.17;;
14066;SDS011;7108;42.684;23.350;2022-09-09T15:04:06;269.67;;;131.20;;
14066;SDS011;7108;42.684;23.350;2022-09-09T15:06:33;260.50;;;129.87;;
14066;SDS011;7108;42.684;23.350;2022-09-09T15:09:02;265.77;;;134.63;;
14066;SDS011;7108;42.684;23.350;2022-09-09T15:11:28;255.10;;;132.13;;
14066;SDS011;7108;42.684;23.350;2022-09-09T15:13:55;260.53;;;128.60;;
14066;SDS011;7108;42.684;23.350;2022-09-09T15:16:23;266.53;;;128.93;;
14066;SDS011;7108;42.684;23.350;2022-09-09T15:18:51;256.50;;;125.30;;
14066;SDS011;7108;42.684;23.350;2022-09-09T15:21:19;268.07;;;135.30;;
14066;SDS011;7108;42.684;23.350;2022-09-09T15:23:46;267.37;;;130.13;;
14066;SDS011;7108;42.684;23.350;2022-09-09T15:26:15;284.70;;;134.53;;
14066;SDS011;7108;42.684;23.350;2022-09-09T15:28:42;279.73;;;132.43;;
14066;SDS011;7108;42.684;23.350;2022-09-09T15:33:49;277.87;;;131.10;;
14066;SDS011;7108;42.684;23.350;2022-09-09T15:36:25;267.20;;;131.23;;
14066;SDS011;7108;42.684;23.350;2022-09-09T15:38:53;260.03;;;130.13;;
14066;SDS011;7108;42.684;23.350;2022-09-09T15:41:20;262.37;;;124.73;;
14066;SDS011;7108;42.684;23.350;2022-09-09T15:43:48;262.37;;;131.63;;
14066;SDS011;7108;42.684;23.350;2022-09-09T15:46:22;280.87;;;133.87;;
14066;SDS011;7108;42.684;23.350;2022-09-09T15:48:51;278.70;;;131.70;;
14066;SDS011;7108;42.684;23.350;2022-09-09T15:51:17;258.90;;;132.33;;
14066;SDS011;7108;42.684;23.350;2022-09-09T15:53:43;263.03;;;128.43;;
14066;SDS011;7108;42.684;23.350;2022-09-09T15:56:10;285.43;;;132.93;;
14066;SDS011;7108;42.684;23.350;2022-09-09T15:58:36;268.20;;;134.10;;
14066;SDS011;7108;42.684;23.350;2022-09-09T16:01:05;267.83;;;128.83;;
14066;SDS011;7108;42.684;23.350;2022-09-09T16:03:36;256.57;;;128.07;;
14066;SDS011;7108;42.684;23.350;2022-09-09T16:06:03;254.73;;;128.07;;
14066;SDS011;7108;42.684;23.350;2022-09-09T16:08:33;257.47;;;129.23;;
14066;SDS011;7108;42.684;23.350;2022-09-09T16:11:06;258.03;;;130.90;;
14066;SDS011;7108;42.684;23.350;2022-09-09T16:13:37;277.13;;;132.17;;
14066;SDS011;7108;42.684;23.350;2022-09-09T16:16:04;262.30;;;128.77;;
14066;SDS011;7108;42.684;23.350;2022-09-09T16:18:34;257.97;;;127.50;;
14066;SDS011;7108;42.684;23.350;2022-09-09T16:21:01;259.60;;;125.83;;
14066;SDS011;7108;42.684;23.350;2022-09-09T16:23:28;234.90;;;123.40;;
14066;SDS011;7108;42.684;23.350;2022-09-09T16:25:54;267.90;;;131.40;;
14066;SDS011;7108;42.684;23.350;2022-09-09T16:28:19;279.50;;;128.77;;
14066;SDS011;7108;42.684;23.350;2022-09-09T16:30:45;258.97;;;126.80;;
14066;SDS011;7108;42.684;23.350;2022-09-09T16:33:10;294.53;;;131.40;;
14066;SDS011;7108;42.684;23.350;2022-09-09T16:35:36;244.70;;;125.93;;
14066;SDS011;7108;42.684;23.350;2022-09-09T16:38:03;242.70;;;127.73;;
14066;SDS011;7108;42.684;23.350;2022-09-09T16:40:29;265.77;;;132.03;;
14066;SDS011;7108;42.684;23.350;2022-09-09T16:42:55;264.93;;;131.37;;
14066;SDS011;7108;42.684;23.350;2022-09-09T16:45:20;280.00;;;132.93;;
14066;SDS011;7108;42.684;23.350;2022-09-09T16:47:47;264.50;;;134.00;;
14066;SDS011;7108;42.684;23.350;2022-09-09T16:50:13;272.27;;;137.30;;
14066;SDS011;7108;42.684;23.350;2022-09-09T16:52:39;268.40;;;135.53;;
14066;SDS011;7108;42.684;23.350;2022-09-09T16:55:04;260.90;;;136.93;;
14066;SDS011;7108;42.684;23.350;2022-09-09T16:57:30;230.93;;;132.50;;
14066;SDS011;7108;42.684;23.350;2022-09-09T16:59:55;272.97;;;137.27;;
14066;SDS011;7108;42.684;23.350;2022-09-09T17:02:24;287.43;;;143.70;;